Time;durP1;ratioP1;P1;durP2;ratioP2;P2;SDS_P1;SDS_P2;PMS_P1;PMS_P2;Temp;Humidity;BMP_temperature;BMP_pressure;BME280_temperature;BME280_humidity;BME280_pressure;Samples;Min_cycle;Max_cycle;Signal;HPM_P1;HPM_P2
2023/09/09 00:00:55;;;;;;;16.25;13.68;;;;;;;;;;5094759;28;20020;-46
2023/09/09 00:03:21;;;;;;;18.20;14.00;;;;;;;;;;5094508;28;20493;-45
2023/09/09 00:05:48;;;;;;;15.95;13.48;;;;;;;;;;5094325;28;20474;-45
2023/09/09 00:08:14;;;;;;;15.98;13.88;;;;;;;;;;5094362;28;20481;-45
2023/09/09 00:10:40;;;;;;;15.75;14.20;;;;;;;;;;5099013;27;20034;-45
2023/09/09 00:13:06;;;;;;;15.73;13.05;;;;;;;;;;5120456;27;20028;-47
2023/09/09 00:15:33;;;;;;;17.15;13.25;;;;;;;;;;5106463;27;20116;-45
2023/09/09 00:17:59;;;;;;;18.02;13.07;;;;;;;;;;5094365;28;20051;-45
2023/09/09 00:20:35;;;;;;;16.40;13.40;;;;;;;;;;5094193;28;20027;-46
2023/09/09 00:23:08;;;;;;;18.05;13.25;;;;;;;;;;5094076;28;20054;-49
2023/09/09 00:25:34;;;;;;;14.35;12.45;;;;;;;;;;5094167;28;20024;-45
2023/09/09 00:28:00;;;;;;;13.88;12.48;;;;;;;;;;5094217;28;20354;-44
2023/09/09 00:30:26;;;;;;;14.85;13.38;;;;;;;;;;5094247;28;20028;-47
2023/09/09 00:32:52;;;;;;;17.48;13.07;;;;;;;;;;5093757;28;20036;-44
2023/09/09 00:35:18;;;;;;;12.55;11.32;;;;;;;;;;5110567;27;20075;-48
2023/09/09 00:37:45;;;;;;;15.70;12.30;;;;;;;;;;5134718;27;20030;-48
2023/09/09 00:40:11;;;;;;;16.88;12.88;;;;;;;;;;5121858;27;20385;-45
2023/09/09 00:42:38;;;;;;;14.02;12.10;;;;;;;;;;5093784;28;20107;-49
2023/09/09 00:45:04;;;;;;;15.02;12.45;;;;;;;;;;5093617;28;20013;-47
2023/09/09 00:47:30;;;;;;;16.15;12.27;;;;;;;;;;5093706;28;20044;-45
2023/09/09 00:49:56;;;;;;;14.35;11.82;;;;;;;;;;5093710;28;20016;-46
2023/09/09 00:52:22;;;;;;;14.85;11.40;;;;;;;;;;5093840;28;20085;-46
2023/09/09 00:54:48;;;;;;;18.65;13.45;;;;;;;;;;5093460;28;20077;-46
2023/09/09 00:57:17;;;;;;;15.20;12.65;;;;;;;;;;5093472;28;20492;-44
2023/09/09 00:59:43;;;;;;;14.60;12.30;;;;;;;;;;5093339;28;20032;-45
2023/09/09 01:02:09;;;;;;;14.25;12.85;;;;;;;;;;5121775;27;20028;-47
2023/09/09 01:04:35;;;;;;;13.55;12.13;;;;;;;;;;5093698;28;20115;-47
2023/09/09 01:07:02;;;;;;;15.65;13.00;;;;;;;;;;5099861;27;20026;-45
2023/09/09 01:09:29;;;;;;;17.80;12.82;;;;;;;;;;5114908;27;20059;-49
2023/09/09 01:11:55;;;;;;;15.77;13.10;;;;;;;;;;5117061;27;20477;-47
2023/09/09 01:14:22;;;;;;;13.07;11.85;;;;;;;;;;5097610;27;20504;-45
2023/09/09 01:16:51;;;;;;;15.50;12.73;;;;;;;;;;5093507;28;20020;-48
2023/09/09 01:19:19;;;;;;;18.23;13.43;;;;;;;;;;5093171;28;20022;-48
2023/09/09 01:21:46;;;;;;;15.32;12.82;;;;;;;;;;5093749;28;20108;-48
2023/09/09 01:24:15;;;;;;;14.73;12.95;;;;;;;;;;5093086;28;20020;-50
2023/09/09 01:26:45;;;;;;;15.70;12.82;;;;;;;;;;5092442;28;20127;-50
2023/09/09 01:29:11;;;;;;;16.33;13.15;;;;;;;;;;5077599;28;20431;-52
2023/09/09 01:31:37;;;;;;;15.88;12.40;;;;;;;;;;5103875;27;20385;-48
2023/09/09 01:34:03;;;;;;;15.95;12.85;;;;;;;;;;5108005;27;20020;-51
2023/09/09 01:36:29;;;;;;;14.95;13.40;;;;;;;;;;5091804;28;20024;-46
2023/09/09 01:38:55;;;;;;;18.58;13.30;;;;;;;;;;5106898;28;20046;-48
2023/09/09 01:41:22;;;;;;;16.33;13.50;;;;;;;;;;5113126;28;20036;-47
2023/09/09 01:43:48;;;;;;;14.82;13.27;;;;;;;;;;5112425;28;20054;-45
2023/09/09 01:46:14;;;;;;;15.75;14.25;;;;;;;;;;5106561;28;20016;-46
2023/09/09 01:48:40;;;;;;;16.88;14.45;;;;;;;;;;5120805;28;20493;-47
2023/09/09 01:51:06;;;;;;;16.33;13.80;;;;;;;;;;5102985;28;20027;-49
2023/09/09 01:53:32;;;;;;;14.45;12.77;;;;;;;;;;5095429;28;20040;-45
2023/09/09 01:55:58;;;;;;;17.02;13.63;;;;;;;;;;5110787;28;20114;-46
2023/09/09 01:58:24;;;;;;;14.63;13.13;;;;;;;;;;5102188;28;20508;-50
2023/09/09 02:00:50;;;;;;;18.23;14.07;;;;;;;;;;5092053;28;20378;-45
2023/09/09 02:03:16;;;;;;;14.25;12.68;;;;;;;;;;5091850;28;20028;-45
2023/09/09 02:05:42;;;;;;;16.23;13.38;;;;;;;;;;5091932;28;20024;-45
2023/09/09 02:08:08;;;;;;;15.15;12.65;;;;;;;;;;5091882;28;20099;-51
2023/09/09 02:10:34;;;;;;;13.80;12.35;;;;;;;;;;5091532;28;20024;-46
2023/09/09 02:13:00;;;;;;;14.07;12.60;;;;;;;;;;5111375;27;20508;-47
2023/09/09 02:15:26;;;;;;;16.40;12.50;;;;;;;;;;5106243;27;20153;-45
2023/09/09 02:17:52;;;;;;;14.82;13.05;;;;;;;;;;5095925;28;20032;-50
2023/09/09 02:20:18;;;;;;;14.95;13.20;;;;;;;;;;5109278;28;20035;-45
2023/09/09 02:22:44;;;;;;;14.60;11.95;;;;;;;;;;5097377;28;20031;-46
2023/09/09 02:25:10;;;;;;;16.25;12.18;;;;;;;;;;5096386;28;20023;-48
2023/09/09 02:27:36;;;;;;;14.30;12.70;;;;;;;;;;5095426;28;20103;-49
2023/09/09 02:30:04;;;;;;;16.42;12.55;;;;;;;;;;5098486;28;20465;-52
2023/09/09 02:32:30;;;;;;;16.73;12.25;;;;;;;;;;5101025;28;20032;-49
2023/09/09 02:34:57;;;;;;;14.93;12.38;;;;;;;;;;5096336;28;20051;-51
2023/09/09 02:37:23;;;;;;;13.25;11.85;;;;;;;;;;5096374;28;20473;-51
2023/09/09 02:39:51;;;;;;;15.65;12.52;;;;;;;;;;5107823;27;20015;-45
2023/09/09 02:42:18;;;;;;;14.55;12.50;;;;;;;;;;5112894;27;20050;-51
2023/09/09 02:44:44;;;;;;;13.90;12.50;;;;;;;;;;5095961;28;20492;-51
2023/09/09 02:47:12;;;;;;;12.93;11.65;;;;;;;;;;5114284;27;20508;-48
2023/09/09 02:49:38;;;;;;;16.35;12.65;;;;;;;;;;5105619;27;20103;-45
2023/09/09 02:52:04;;;;;;;14.50;13.18;;;;;;;;;;5095752;28;20032;-45
2023/09/09 02:54:30;;;;;;;13.77;12.38;;;;;;;;;;5098016;28;20111;-49
2023/09/09 02:56:57;;;;;;;14.80;12.68;;;;;;;;;;5098026;28;20053;-49
2023/09/09 02:59:23;;;;;;;14.70;13.32;;;;;;;;;;5097989;28;20030;-46
2023/09/09 03:01:49;;;;;;;15.90;12.20;;;;;;;;;;5097863;28;20020;-47
2023/09/09 03:04:15;;;;;;;14.75;12.60;;;;;;;;;;5097863;28;20428;-48
2023/09/09 03:06:41;;;;;;;12.82;11.77;;;;;;;;;;5103336;27;20024;-48
2023/09/09 03:09:07;;;;;;;13.65;12.35;;;;;;;;;;5120721;27;20023;-49
2023/09/09 03:11:33;;;;;;;14.07;12.57;;;;;;;;;;5097680;28;20027;-46
2023/09/09 03:13:59;;;;;;;13.50;12.15;;;;;;;;;;5095451;28;20020;-48
2023/09/09 03:16:25;;;;;;;14.75;12.90;;;;;;;;;;5097616;28;20032;-47
2023/09/09 03:18:51;;;;;;;15.18;12.40;;;;;;;;;;5097395;28;20020;-46
2023/09/09 03:21:17;;;;;;;15.93;12.00;;;;;;;;;;5095433;28;20027;-48
2023/09/09 03:23:43;;;;;;;13.57;12.27;;;;;;;;;;5094941;28;20069;-50
2023/09/09 03:26:10;;;;;;;14.43;12.93;;;;;;;;;;5095576;28;20048;-49
2023/09/09 03:28:36;;;;;;;13.32;11.93;;;;;;;;;;5095270;28;20024;-45
2023/09/09 03:31:02;;;;;;;15.50;12.27;;;;;;;;;;5095306;28;20058;-45
2023/09/09 03:33:28;;;;;;;13.63;12.32;;;;;;;;;;5095197;28;20559;-48
2023/09/09 03:35:54;;;;;;;14.52;12.95;;;;;;;;;;5112995;28;20446;-50
2023/09/09 03:38:20;;;;;;;13.82;12.43;;;;;;;;;;5112103;28;20024;-53
2023/09/09 03:40:46;;;;;;;13.68;12.18;;;;;;;;;;5125640;27;20026;-52
2023/09/09 03:43:13;;;;;;;16.17;12.20;;;;;;;;;;5119668;27;20019;-51
2023/09/09 03:45:39;;;;;;;13.10;11.63;;;;;;;;;;5129823;27;20027;-49
2023/09/09 03:48:05;;;;;;;12.38;11.13;;;;;;;;;;5108300;28;20118;-51
2023/09/09 03:50:31;;;;;;;15.23;12.32;;;;;;;;;;5094905;28;20024;-49
2023/09/09 03:52:57;;;;;;;13.57;12.18;;;;;;;;;;5104025;27;20031;-51
2023/09/09 03:55:23;;;;;;;14.25;12.70;;;;;;;;;;5124806;27;20023;-51
2023/09/09 03:57:51;;;;;;;14.77;13.18;;;;;;;;;;5112515;28;20038;-46
2023/09/09 04:00:17;;;;;;;17.58;12.07;;;;;;;;;;5095008;28;20047;-45
2023/09/09 04:02:43;;;;;;;15.15;12.98;;;;;;;;;;5095682;28;20433;-50
2023/09/09 04:05:09;;;;;;;14.32;12.85;;;;;;;;;;5094751;28;20132;-49
2023/09/09 04:07:36;;;;;;;13.05;11.32;;;;;;;;;;5094733;28;20031;-53
2023/09/09 04:10:02;;;;;;;14.20;12.80;;;;;;;;;;5098968;28;20019;-46
2023/09/09 04:12:28;;;;;;;16.85;12.60;;;;;;;;;;5104375;28;20051;-49
2023/09/09 04:14:54;;;;;;;16.65;13.02;;;;;;;;;;5094097;28;20031;-48
2023/09/09 04:17:20;;;;;;;17.15;13.10;;;;;;;;;;5094422;28;20024;-48
2023/09/09 04:19:46;;;;;;;18.20;12.30;;;;;;;;;;5094161;28;20034;-48
2023/09/09 04:22:12;;;;;;;16.40;12.27;;;;;;;;;;5094459;28;20015;-45
2023/09/09 04:24:38;;;;;;;14.02;12.13;;;;;;;;;;5094492;28;20115;-47
2023/09/09 04:27:04;;;;;;;13.68;12.23;;;;;;;;;;5122765;27;20027;-46
2023/09/09 04:29:30;;;;;;;13.98;12.45;;;;;;;;;;5116728;27;20023;-51
2023/09/09 04:32:02;;;;;;;16.25;12.45;;;;;;;;;;5099783;27;20032;-47
2023/09/09 04:34:28;;;;;;;13.40;11.77;;;;;;;;;;5093884;28;20027;-48
2023/09/09 04:36:54;;;;;;;13.73;12.43;;;;;;;;;;5093416;28;20457;-46
2023/09/09 04:39:20;;;;;;;13.98;12.40;;;;;;;;;;5094223;28;20024;-52
2023/09/09 04:41:46;;;;;;;14.07;12.25;;;;;;;;;;5094170;28;20016;-48
2023/09/09 04:44:12;;;;;;;15.05;12.57;;;;;;;;;;5113062;28;20381;-50
2023/09/09 04:46:38;;;;;;;15.70;12.20;;;;;;;;;;5114152;28;20027;-45
2023/09/09 04:49:04;;;;;;;14.52;12.80;;;;;;;;;;5110799;28;20093;-48
2023/09/09 04:51:31;;;;;;;14.95;12.55;;;;;;;;;;5093558;28;20024;-50
2023/09/09 04:53:57;;;;;;;14.18;12.70;;;;;;;;;;5122355;27;20031;-45
2023/09/09 04:56:23;;;;;;;13.85;12.32;;;;;;;;;;5093983;28;20533;-46
2023/09/09 04:58:50;;;;;;;17.55;12.40;;;;;;;;;;5093651;28;20067;-45
2023/09/09 05:01:16;;;;;;;13.57;11.93;;;;;;;;;;5093596;28;20012;-45
2023/09/09 05:03:42;;;;;;;15.55;12.50;;;;;;;;;;5093814;28;20039;-50
2023/09/09 05:06:08;;;;;;;13.98;12.32;;;;;;;;;;5093545;28;20012;-46
2023/09/09 05:08:34;;;;;;;14.60;12.18;;;;;;;;;;5095502;28;20027;-51
2023/09/09 05:11:00;;;;;;;12.95;11.45;;;;;;;;;;5101839;28;20521;-45
2023/09/09 05:13:26;;;;;;;12.50;10.93;;;;;;;;;;5112594;28;20044;-45
2023/09/09 05:15:52;;;;;;;13.90;12.57;;;;;;;;;;5116881;27;20030;-49
2023/09/09 05:18:18;;;;;;;14.02;12.68;;;;;;;;;;5130095;27;20477;-48
2023/09/09 05:20:44;;;;;;;15.88;12.45;;;;;;;;;;5118545;27;20078;-52
2023/09/09 05:23:10;;;;;;;12.95;11.32;;;;;;;;;;5099745;28;20470;-50
2023/09/09 05:25:36;;;;;;;12.90;11.63;;;;;;;;;;5092989;28;20035;-51
2023/09/09 05:28:02;;;;;;;17.02;11.82;;;;;;;;;;5097945;28;20015;-50
2023/09/09 05:30:28;;;;;;;16.50;11.50;;;;;;;;;;5124633;27;20324;-52
2023/09/09 05:32:54;;;;;;;13.60;12.13;;;;;;;;;;5134022;27;20114;-50
2023/09/09 05:35:20;;;;;;;14.65;11.80;;;;;;;;;;5115536;27;20016;-49
2023/09/09 05:37:47;;;;;;;15.57;12.27;;;;;;;;;;5092811;28;20492;-49
2023/09/09 05:40:13;;;;;;;12.63;11.27;;;;;;;;;;5087701;28;20061;-48
2023/09/09 05:42:40;;;;;;;14.20;11.57;;;;;;;;;;5093156;28;20028;-48
2023/09/09 05:45:08;;;;;;;13.68;11.50;;;;;;;;;;5092828;28;20026;-50
2023/09/09 05:47:35;;;;;;;13.00;11.70;;;;;;;;;;5118582;27;20070;-50
2023/09/09 05:50:01;;;;;;;12.30;11.00;;;;;;;;;;5109196;27;20469;-50
2023/09/09 05:52:27;;;;;;;13.43;11.40;;;;;;;;;;5118417;27;20036;-51
2023/09/09 05:54:53;;;;;;;13.85;12.35;;;;;;;;;;5097164;28;20022;-49
2023/09/09 05:57:19;;;;;;;20.35;12.43;;;;;;;;;;5096942;28;20020;-47
2023/09/09 05:59:45;;;;;;;15.65;11.35;;;;;;;;;;5096927;28;20020;-46
2023/09/09 06:02:11;;;;;;;15.25;12.23;;;;;;;;;;5111400;28;20381;-51
2023/09/09 06:04:37;;;;;;;14.75;13.23;;;;;;;;;;5097058;28;20016;-47
2023/09/09 06:07:04;;;;;;;13.80;11.95;;;;;;;;;;5096741;28;20028;-49
2023/09/09 06:09:30;;;;;;;15.10;12.23;;;;;;;;;;5106706;28;20427;-49
2023/09/09 06:11:56;;;;;;;15.52;12.65;;;;;;;;;;5102566;28;20020;-50
2023/09/09 06:14:22;;;;;;;14.98;12.48;;;;;;;;;;5102814;28;20032;-48
2023/09/09 06:16:48;;;;;;;16.10;12.50;;;;;;;;;;5096610;28;20489;-48
2023/09/09 06:19:14;;;;;;;13.02;11.80;;;;;;;;;;5110757;28;20051;-48
2023/09/09 06:21:40;;;;;;;13.90;12.40;;;;;;;;;;5119147;27;20019;-46
2023/09/09 06:24:07;;;;;;;14.75;12.05;;;;;;;;;;5134254;27;20465;-48
2023/09/09 06:26:33;;;;;;;16.23;11.68;;;;;;;;;;5107805;28;20373;-48
2023/09/09 06:29:00;;;;;;;12.80;11.55;;;;;;;;;;5110729;28;20031;-45
2023/09/09 06:31:26;;;;;;;13.80;11.82;;;;;;;;;;5096408;28;20020;-46
2023/09/09 06:33:53;;;;;;;15.00;11.25;;;;;;;;;;5096261;28;20040;-44
2023/09/09 06:36:22;;;;;;;13.30;11.85;;;;;;;;;;5096154;28;20027;-48
2023/09/09 06:38:48;;;;;;;14.38;12.85;;;;;;;;;;5096294;28;20221;-49
2023/09/09 06:41:15;;;;;;;14.85;13.30;;;;;;;;;;5096007;28;20023;-49
2023/09/09 06:43:42;;;;;;;19.10;13.70;;;;;;;;;;5096140;28;20024;-44
2023/09/09 06:46:08;;;;;;;18.13;13.18;;;;;;;;;;5086754;28;20028;-51
2023/09/09 06:48:34;;;;;;;17.55;13.15;;;;;;;;;;5089368;28;20487;-45
2023/09/09 06:51:00;;;;;;;17.08;12.27;;;;;;;;;;5096210;28;20032;-49
2023/09/09 06:53:26;;;;;;;22.85;13.43;;;;;;;;;;5095797;28;20043;-48
2023/09/09 06:55:52;;;;;;;15.27;13.68;;;;;;;;;;5095855;28;20381;-48
2023/09/09 06:58:18;;;;;;;15.82;13.73;;;;;;;;;;5094848;28;20103;-50
2023/09/09 07:00:54;;;;;;;14.55;12.55;;;;;;;;;;5096009;28;20047;-45
2023/09/09 07:03:20;;;;;;;23.00;13.40;;;;;;;;;;5095670;28;20059;-47
2023/09/09 07:05:46;;;;;;;14.55;12.82;;;;;;;;;;5095698;28;20107;-47
2023/09/09 07:08:12;;;;;;;14.38;12.85;;;;;;;;;;5095563;28;20085;-48
2023/09/09 07:10:38;;;;;;;17.65;13.68;;;;;;;;;;5095884;28;20455;-48
2023/09/09 07:13:04;;;;;;;20.02;12.60;;;;;;;;;;5095286;28;20158;-44
2023/09/09 07:15:30;;;;;;;18.40;13.35;;;;;;;;;;5095731;28;20378;-45
2023/09/09 07:17:57;;;;;;;19.38;13.57;;;;;;;;;;5095438;28;20028;-46
2023/09/09 07:20:23;;;;;;;18.50;14.02;;;;;;;;;;5095573;28;20039;-45
2023/09/09 07:22:49;;;;;;;16.48;12.48;;;;;;;;;;5122240;27;20031;-45
2023/09/09 07:25:15;;;;;;;14.80;12.77;;;;;;;;;;5110962;27;20020;-47
2023/09/09 07:27:41;;;;;;;16.10;14.40;;;;;;;;;;5095261;28;20020;-49
2023/09/09 07:30:09;;;;;;;17.38;13.77;;;;;;;;;;5095257;28;20016;-45
2023/09/09 07:32:35;;;;;;;19.75;14.30;;;;;;;;;;5095109;28;20035;-49
2023/09/09 07:35:05;;;;;;;17.17;13.73;;;;;;;;;;5095092;28;20105;-51
2023/09/09 07:37:31;;;;;;;18.40;13.77;;;;;;;;;;5096365;28;20024;-47
2023/09/09 07:39:58;;;;;;;19.92;14.93;;;;;;;;;;5107880;28;20339;-46
2023/09/09 07:42:25;;;;;;;19.33;15.18;;;;;;;;;;5095348;28;20107;-49
2023/09/09 07:44:51;;;;;;;18.88;15.77;;;;;;;;;;5094824;28;20474;-45
2023/09/09 07:47:17;;;;;;;24.80;15.20;;;;;;;;;;5095081;28;20326;-50
2023/09/09 07:49:43;;;;;;;17.55;15.60;;;;;;;;;;5082676;28;20499;-47
2023/09/09 07:52:09;;;;;;;18.10;13.73;;;;;;;;;;5105239;28;20376;-52
2023/09/09 07:54:35;;;;;;;15.32;13.23;;;;;;;;;;5080508;28;20099;-51
2023/09/09 07:57:04;;;;;;;19.98;15.10;;;;;;;;;;5094805;28;20031;-50
2023/09/09 07:59:30;;;;;;;14.93;13.43;;;;;;;;;;5094721;28;20092;-49
2023/09/09 08:01:56;;;;;;;16.48;12.93;;;;;;;;;;5094905;28;20020;-46
2023/09/09 08:04:23;;;;;;;16.17;12.23;;;;;;;;;;5094824;28;20020;-48
2023/09/09 08:06:52;;;;;;;16.70;14.27;;;;;;;;;;5094370;28;20051;-50
2023/09/09 08:09:18;;;;;;;16.15;14.32;;;;;;;;;;5094467;28;20020;-51
2023/09/09 08:11:44;;;;;;;15.75;14.00;;;;;;;;;;5094349;28;20016;-50
2023/09/09 08:14:10;;;;;;;16.40;12.73;;;;;;;;;;5094293;28;20020;-50
2023/09/09 08:16:36;;;;;;;19.30;14.52;;;;;;;;;;5094461;28;20025;-50
2023/09/09 08:19:02;;;;;;;15.60;13.93;;;;;;;;;;5101891;28;20102;-48
2023/09/09 08:21:28;;;;;;;13.55;12.20;;;;;;;;;;5124168;27;20464;-50
2023/09/09 08:23:59;;;;;;;18.17;13.45;;;;;;;;;;5135272;27;20384;-50
2023/09/09 08:26:25;;;;;;;16.98;13.20;;;;;;;;;;5118792;27;20035;-50
2023/09/09 08:28:51;;;;;;;16.05;12.82;;;;;;;;;;5094337;28;20032;-49
2023/09/09 08:31:17;;;;;;;18.90;13.38;;;;;;;;;;5094095;28;20027;-49
2023/09/09 08:33:43;;;;;;;14.00;11.93;;;;;;;;;;5093904;28;20040;-49
2023/09/09 08:36:09;;;;;;;14.63;13.10;;;;;;;;;;5093804;28;20027;-48
2023/09/09 08:38:35;;;;;;;19.10;13.65;;;;;;;;;;5093886;28;20430;-51
2023/09/09 08:41:05;;;;;;;15.25;13.60;;;;;;;;;;5096201;28;20031;-48
2023/09/09 08:43:34;;;;;;;17.25;13.57;;;;;;;;;;5113604;28;20055;-51
2023/09/09 08:46:11;;;;;;;19.77;15.27;;;;;;;;;;5093024;28;20012;-50
2023/09/09 08:48:38;;;;;;;16.17;14.38;;;;;;;;;;5093421;28;20048;-48
2023/09/09 08:51:04;;;;;;;19.13;14.27;;;;;;;;;;5107302;28;20016;-50
2023/09/09 08:53:31;;;;;;;17.23;15.43;;;;;;;;;;5093672;28;20036;-49
2023/09/09 08:56:01;;;;;;;19.65;14.43;;;;;;;;;;5093424;28;20462;-47
2023/09/09 08:58:27;;;;;;;19.52;13.57;;;;;;;;;;5093536;28;20460;-45
2023/09/09 09:00:53;;;;;;;14.02;11.82;;;;;;;;;;5093398;28;20489;-46
2023/09/09 09:03:19;;;;;;;15.90;13.10;;;;;;;;;;5093722;28;20024;-47
2023/09/09 09:05:45;;;;;;;19.55;12.63;;;;;;;;;;5093467;28;20526;-46
2023/09/09 09:08:11;;;;;;;14.68;10.55;;;;;;;;;;5093651;28;20372;-46
2023/09/09 09:10:40;;;;;;;11.57;9.70;;;;;;;;;;5100740;28;20462;-46
2023/09/09 09:13:06;;;;;;;12.73;11.27;;;;;;;;;;5093624;28;20036;-47
2023/09/09 09:15:33;;;;;;;11.82;10.07;;;;;;;;;;5093141;28;20028;-48
2023/09/09 09:18:00;;;;;;;12.27;9.80;;;;;;;;;;5093255;28;20050;-49
2023/09/09 09:20:26;;;;;;;14.32;11.70;;;;;;;;;;5094508;28;20028;-47
2023/09/09 09:22:53;;;;;;;14.23;12.18;;;;;;;;;;5119570;27;20040;-49
2023/09/09 09:25:22;;;;;;;15.60;13.32;;;;;;;;;;5093087;28;20107;-45
2023/09/09 09:27:48;;;;;;;15.30;13.52;;;;;;;;;;5093160;28;20020;-43
2023/09/09 09:30:14;;;;;;;13.55;11.55;;;;;;;;;;5092956;28;20496;-45
2023/09/09 09:32:43;;;;;;;14.95;13.45;;;;;;;;;;5107179;28;20059;-45
2023/09/09 09:35:25;;;;;;;16.05;10.55;;;;;;;;;;5103382;28;20030;-45
2023/09/09 09:37:57;;;;;;;11.98;10.80;;;;;;;;;;5098959;28;20437;-48
2023/09/09 09:40:23;;;;;;;14.98;10.45;;;;;;;;;;5102109;28;20028;-46
2023/09/09 09:42:50;;;;;;;14.45;9.15;;;;;;;;;;5091876;28;20032;-50
2023/09/09 09:45:16;;;;;;;11.85;9.70;;;;;;;;;;5092784;28;20020;-48
2023/09/09 09:47:50;;;;;;;11.77;10.00;;;;;;;;;;5092790;28;20036;-45
2023/09/09 09:50:19;;;;;;;11.88;9.93;;;;;;;;;;5093165;28;20434;-49
2023/09/09 09:53:08;;;;;;;13.20;10.48;;;;;;;;;;5092891;28;20032;-48
2023/09/09 09:55:36;;;;;;;11.07;8.80;;;;;;;;;;5096397;28;20044;-45
2023/09/09 09:58:08;;;;;;;13.15;8.48;;;;;;;;;;5092722;28;20025;-47
2023/09/09 10:00:34;;;;;;;15.15;9.20;;;;;;;;;;5102740;28;20024;-49
2023/09/09 10:03:01;;;;;;;10.88;9.25;;;;;;;;;;5105818;28;20021;-50
2023/09/09 10:05:28;;;;;;;10.55;8.60;;;;;;;;;;5098688;28;20031;-48
2023/09/09 10:08:03;;;;;;;10.93;8.25;;;;;;;;;;5100778;28;20020;-51
2023/09/09 10:10:32;;;;;;;11.73;9.02;;;;;;;;;;5098999;28;20031;-45
2023/09/09 10:13:00;;;;;;;12.27;8.32;;;;;;;;;;5112927;28;20114;-51
2023/09/09 10:15:26;;;;;;;10.90;8.32;;;;;;;;;;5094202;28;20054;-53
2023/09/09 10:17:54;;;;;;;14.48;11.95;;;;;;;;;;5092726;28;20039;-48
2023/09/09 10:20:20;;;;;;;14.38;12.85;;;;;;;;;;5092587;28;20031;-47
2023/09/09 10:22:48;;;;;;;19.00;13.45;;;;;;;;;;5133382;28;20094;-51
2023/09/09 10:25:15;;;;;;;15.98;14.25;;;;;;;;;;5133605;28;20027;-49
2023/09/09 10:27:42;;;;;;;22.30;17.13;;;;;;;;;;5081814;28;20069;-46
2023/09/09 10:30:08;;;;;;;18.38;13.65;;;;;;;;;;5113159;28;20031;-52
2023/09/09 10:32:35;;;;;;;16.05;13.05;;;;;;;;;;5095812;28;20059;-51
2023/09/09 10:35:05;;;;;;;21.15;14.15;;;;;;;;;;5095676;28;20032;-52
2023/09/09 10:37:33;;;;;;;18.23;14.18;;;;;;;;;;5104990;28;20055;-51
2023/09/09 10:39:59;;;;;;;17.75;14.85;;;;;;;;;;5108996;28;20074;-49
2023/09/09 10:42:25;;;;;;;18.50;15.02;;;;;;;;;;5084218;28;20067;-50
2023/09/09 10:44:53;;;;;;;16.08;13.73;;;;;;;;;;5095870;28;20359;-48
2023/09/09 10:47:20;;;;;;;18.85;15.90;;;;;;;;;;5096157;28;20044;-46
2023/09/09 10:49:46;;;;;;;16.90;13.70;;;;;;;;;;5100336;28;20081;-46
2023/09/09 10:52:34;;;;;;;15.70;12.27;;;;;;;;;;5106063;28;20032;-47
2023/09/09 10:55:13;;;;;;;17.75;13.25;;;;;;;;;;5083620;28;20374;-50
2023/09/09 10:57:39;;;;;;;14.30;12.85;;;;;;;;;;5102836;28;20473;-45
2023/09/09 11:00:06;;;;;;;12.75;11.45;;;;;;;;;;5095696;28;20074;-49
2023/09/09 11:02:43;;;;;;;11.48;10.30;;;;;;;;;;5095692;28;20051;-48
2023/09/09 11:05:13;;;;;;;11.57;10.27;;;;;;;;;;5095794;28;20062;-47
2023/09/09 11:07:40;;;;;;;15.15;10.52;;;;;;;;;;5095748;28;20032;-52
2023/09/09 11:10:06;;;;;;;16.48;11.23;;;;;;;;;;5101917;28;20016;-51
2023/09/09 11:15:51;;;;;;;12.38;11.07;;;;;;;;;;5106747;28;20396;-50
2023/09/09 11:18:18;;;;;;;11.60;10.38;;;;;;;;;;5109759;28;20024;-50
2023/09/09 11:20:45;;;;;;;17.70;10.18;;;;;;;;;;5108222;28;20020;-52
2023/09/09 11:23:11;;;;;;;11.20;9.93;;;;;;;;;;5110254;28;20466;-46
2023/09/09 11:25:37;;;;;;;16.42;11.57;;;;;;;;;;5110244;28;20104;-47
2023/09/09 11:28:04;;;;;;;12.90;10.95;;;;;;;;;;5110987;28;20515;-49
2023/09/09 11:30:40;;;;;;;15.43;11.20;;;;;;;;;;5109282;27;20487;-49
2023/09/09 11:33:06;;;;;;;14.43;11.27;;;;;;;;;;5111385;28;20032;-48
2023/09/09 11:35:32;;;;;;;10.80;9.68;;;;;;;;;;5102039;28;20493;-48
2023/09/09 11:38:10;;;;;;;12.57;10.05;;;;;;;;;;5109457;28;20031;-46
2023/09/09 11:40:36;;;;;;;13.52;9.73;;;;;;;;;;5095024;28;20107;-45
2023/09/09 11:43:02;;;;;;;12.80;10.02;;;;;;;;;;5095298;28;20013;-46
2023/09/09 11:45:32;;;;;;;12.88;10.68;;;;;;;;;;5094559;28;20027;-45
2023/09/09 11:47:58;;;;;;;11.45;9.88;;;;;;;;;;5097017;28;20040;-45
2023/09/09 11:50:37;;;;;;;9.93;8.85;;;;;;;;;;5105580;28;20523;-47
2023/09/09 11:53:03;;;;;;;12.48;11.20;;;;;;;;;;5082542;28;20519;-46
2023/09/09 11:55:29;;;;;;;10.55;9.55;;;;;;;;;;5087206;28;20028;-46
2023/09/09 11:57:56;;;;;;;10.70;9.60;;;;;;;;;;5094898;28;20043;-45
2023/09/09 12:00:22;;;;;;;12.02;9.10;;;;;;;;;;5094725;28;20051;-45
2023/09/09 12:02:48;;;;;;;11.65;9.90;;;;;;;;;;5094781;28;20024;-48
2023/09/09 12:05:15;;;;;;;12.43;11.13;;;;;;;;;;5082549;28;20024;-45
2023/09/09 12:07:41;;;;;;;12.02;10.90;;;;;;;;;;5102923;28;20427;-45
2023/09/09 12:10:12;;;;;;;11.10;10.10;;;;;;;;;;5094359;28;20388;-47
2023/09/09 12:12:38;;;;;;;10.68;9.57;;;;;;;;;;5094352;28;20032;-46
2023/09/09 12:15:05;;;;;;;11.48;10.38;;;;;;;;;;5078557;28;20030;-48
2023/09/09 12:17:31;;;;;;;9.35;8.50;;;;;;;;;;5109032;27;20549;-46
2023/09/09 12:19:58;;;;;;;9.55;8.65;;;;;;;;;;5114448;28;20129;-45
2023/09/09 12:22:47;;;;;;;10.15;8.98;;;;;;;;;;5114500;28;20098;-45
2023/09/09 12:25:35;;;;;;;9.38;8.43;;;;;;;;;;5100378;28;20485;-49
2023/09/09 12:28:01;;;;;;;10.13;9.20;;;;;;;;;;5094625;28;20039;-48
2023/09/09 12:30:35;;;;;;;8.70;7.80;;;;;;;;;;5094093;28;20069;-46
2023/09/09 12:33:05;;;;;;;9.75;8.93;;;;;;;;;;5093983;28;20557;-48
2023/09/09 12:35:34;;;;;;;9.52;8.38;;;;;;;;;;5108231;28;20012;-45
2023/09/09 12:38:01;;;;;;;10.85;9.93;;;;;;;;;;5094020;28;20020;-45
2023/09/09 12:40:27;;;;;;;13.10;9.75;;;;;;;;;;5094127;28;20048;-45
2023/09/09 12:43:08;;;;;;;10.07;9.07;;;;;;;;;;5094215;28;20021;-48
2023/09/09 12:45:34;;;;;;;9.98;9.18;;;;;;;;;;5078703;28;20028;-50
2023/09/09 12:48:10;;;;;;;9.40;8.60;;;;;;;;;;5093824;28;20040;-46
2023/09/09 12:50:36;;;;;;;11.80;10.70;;;;;;;;;;5095476;28;20077;-46
2023/09/09 12:53:02;;;;;;;12.77;9.15;;;;;;;;;;5106615;28;20035;-51
2023/09/09 12:55:28;;;;;;;10.50;9.32;;;;;;;;;;5093504;28;20028;-48
2023/09/09 12:57:54;;;;;;;11.45;10.45;;;;;;;;;;5092998;28;20496;-47
2023/09/09 13:00:20;;;;;;;10.48;9.52;;;;;;;;;;5093798;28;20016;-47
2023/09/09 13:02:46;;;;;;;11.68;9.65;;;;;;;;;;5107730;28;20113;-46
2023/09/09 13:05:12;;;;;;;10.70;9.68;;;;;;;;;;5085643;28;20023;-48
2023/09/09 13:07:38;;;;;;;11.20;10.38;;;;;;;;;;5093363;28;20034;-48
2023/09/09 13:10:04;;;;;;;11.27;10.48;;;;;;;;;;5093395;28;20051;-43
2023/09/09 13:12:30;;;;;;;11.60;10.57;;;;;;;;;;5093587;28;20036;-46
2023/09/09 13:14:58;;;;;;;10.63;9.70;;;;;;;;;;5107520;28;20026;-47
2023/09/09 13:17:24;;;;;;;11.27;10.25;;;;;;;;;;5093395;28;20436;-51
2023/09/09 13:19:50;;;;;;;12.05;10.88;;;;;;;;;;5093243;28;20484;-51
2023/09/09 13:22:16;;;;;;;11.52;10.48;;;;;;;;;;5084811;28;20016;-52
2023/09/09 13:24:42;;;;;;;11.45;10.55;;;;;;;;;;5094537;28;20031;-50
2023/09/09 13:27:08;;;;;;;11.10;10.18;;;;;;;;;;5113386;28;20024;-48
2023/09/09 13:29:34;;;;;;;11.30;10.32;;;;;;;;;;5081736;28;20020;-48
2023/09/09 13:32:00;;;;;;;12.20;10.70;;;;;;;;;;5121564;27;20500;-51
2023/09/09 13:34:26;;;;;;;11.07;10.23;;;;;;;;;;5092995;28;20020;-46
2023/09/09 13:36:52;;;;;;;12.05;11.02;;;;;;;;;;5096623;28;20037;-44
2023/09/09 13:39:18;;;;;;;11.52;10.52;;;;;;;;;;5100946;28;20111;-45
2023/09/09 13:41:44;;;;;;;12.25;11.00;;;;;;;;;;5092779;28;20031;-46
2023/09/09 13:44:10;;;;;;;12.57;11.55;;;;;;;;;;5092812;28;20020;-48
2023/09/09 13:46:36;;;;;;;12.98;11.57;;;;;;;;;;5092843;28;20024;-49
2023/09/09 13:49:02;;;;;;;11.65;10.80;;;;;;;;;;5092588;28;20047;-47
2023/09/09 13:51:29;;;;;;;11.00;9.75;;;;;;;;;;5083026;28;20104;-52
2023/09/09 13:53:54;;;;;;;10.82;10.00;;;;;;;;;;5092657;28;20035;-48
2023/09/09 13:56:20;;;;;;;10.75;9.90;;;;;;;;;;5093075;28;20020;-50
2023/09/09 13:58:46;;;;;;;9.68;8.98;;;;;;;;;;5092827;28;20512;-47
2023/09/09 14:01:12;;;;;;;10.57;9.80;;;;;;;;;;5092850;28;20056;-46
2023/09/09 14:03:38;;;;;;;10.48;9.57;;;;;;;;;;5092887;28;20489;-50
2023/09/09 14:06:05;;;;;;;11.85;10.50;;;;;;;;;;5076609;28;20024;-52
2023/09/09 14:08:30;;;;;;;10.82;10.02;;;;;;;;;;5107438;28;20409;-53
2023/09/09 14:10:56;;;;;;;10.75;9.75;;;;;;;;;;5096887;28;20027;-50
2023/09/09 14:13:22;;;;;;;10.55;9.50;;;;;;;;;;5096652;28;20036;-46
2023/09/09 14:15:48;;;;;;;10.13;9.25;;;;;;;;;;5096603;28;20443;-51
2023/09/09 14:18:15;;;;;;;10.35;9.65;;;;;;;;;;5117206;28;20038;-48
2023/09/09 14:20:42;;;;;;;10.13;9.02;;;;;;;;;;5105004;28;20020;-48